PWSweather.com
Personal Weather Stations
Station Observations
IPORTUGA89
BarosaPT

BarosaPT

Lat: 39.754028, Lon: -8.843

Elevation: 98

Station Type: Davis Vp2

High Low Average
Temperature 85.6°F29.8°C 56.5°F13.6°C 67.4°F19.7°C
Dew Point 66.2°F19.0°C 54.5°F12.5°C 61.0°F16.1°C
Winds 10.1 mph 16.3 kmh Calm Calm 3.0 mph SW4.8 kmh SW
Wind Gusts 17.0 mph27.4 kmh -- 6.0 mph9.7 kmh
Humidity 96% 50% 82%
Pressure 30.18 in1022.0 mb 30.08 in1018.6 mb -
Precipitation 0.00 in0.0 mm - -
Hour Temp Dew Point Humidity Winds Wind Gusts Pressure Precip Precip Rate Daily Precip Total
12:09 AM 61.5°F16.4°C 58.8°F14.9°C 91% Calm Calm -- 30.14 in1020.7 mb 0.00 in0.0 mm 0.00 in0.0 mm 0.00 in0.0 mm
12:20 AM 61.0°F16.1°C 58.3°F14.6°C 91% Calm Calm -- 30.14 in1020.7 mb 0.00 in0.0 mm 0.00 in0.0 mm 0.00 in0.0 mm
12:30 AM 60.6°F15.9°C 58.3°F14.6°C 92% Calm Calm -- 30.13 in1020.3 mb 0.00 in0.0 mm 0.00 in0.0 mm 0.00 in0.0 mm
12:40 AM 60.1°F15.6°C 57.7°F14.3°C 92% Calm Calm -- 30.13 in1020.3 mb 0.00 in0.0 mm 0.00 in0.0 mm 0.00 in0.0 mm
12:50 AM 59.5°F15.3°C 57.2°F14.0°C 92% Calm Calm -- 30.13 in1020.3 mb 0.00 in0.0 mm 0.00 in0.0 mm 0.00 in0.0 mm
01:00 AM 58.8°F14.9°C 56.5°F13.6°C 92% Calm Calm -- 30.13 in1020.3 mb 0.00 in0.0 mm 0.00 in0.0 mm 0.00 in0.0 mm
01:10 AM 58.3°F14.6°C 55.9°F13.3°C 92% Calm Calm -- 30.13 in1020.3 mb 0.00 in0.0 mm 0.00 in0.0 mm 0.00 in0.0 mm
01:20 AM 57.9°F14.4°C 55.6°F13.1°C 92% Calm Calm -- 30.12 in1020.0 mb 0.00 in0.0 mm 0.00 in0.0 mm 0.00 in0.0 mm
01:30 AM 57.9°F14.4°C 55.6°F13.1°C 92% Calm Calm -- 30.12 in1020.0 mb 0.00 in0.0 mm 0.00 in0.0 mm 0.00 in0.0 mm
01:40 AM 58.1°F14.5°C 56.1°F13.4°C 93% Calm Calm -- 30.11 in1019.6 mb 0.00 in0.0 mm 0.00 in0.0 mm 0.00 in0.0 mm
01:51 AM 57.9°F14.4°C 55.9°F13.3°C 93% Calm Calm -- 30.11 in1019.6 mb 0.00 in0.0 mm 0.00 in0.0 mm 0.00 in0.0 mm
02:01 AM 57.7°F14.3°C 55.8°F13.2°C 93% Calm Calm -- 30.11 in1019.6 mb 0.00 in0.0 mm 0.00 in0.0 mm 0.00 in0.0 mm
02:11 AM 57.2°F14.0°C 55.2°F12.9°C 93% Calm Calm -- 30.10 in1019.3 mb 0.00 in0.0 mm 0.00 in0.0 mm 0.00 in0.0 mm
02:21 AM 57.0°F13.9°C 55.0°F12.8°C 93% 2.0 mph WSW3.2 kmh WSW 4.0 mph6.4 kmh 30.10 in1019.3 mb 0.00 in0.0 mm 0.00 in0.0 mm 0.00 in0.0 mm
02:31 AM 57.0°F13.9°C 55.2°F12.9°C 94% Calm Calm 2.9 mph4.7 kmh 30.09 in1019.0 mb 0.00 in0.0 mm 0.00 in0.0 mm 0.00 in0.0 mm
02:42 AM 56.5°F13.6°C 54.5°F12.5°C 93% 0.9 mph WSW1.4 kmh WSW 2.0 mph3.2 kmh 30.09 in1019.0 mb 0.00 in0.0 mm 0.00 in0.0 mm 0.00 in0.0 mm
02:52 AM 57.0°F13.9°C 55.2°F12.9°C 94% 2.0 mph WSW3.2 kmh WSW 4.0 mph6.4 kmh 30.09 in1019.0 mb 0.00 in0.0 mm 0.00 in0.0 mm 0.00 in0.0 mm
03:02 AM 58.5°F14.7°C 56.7°F13.7°C 94% 2.0 mph NW3.2 kmh NW 4.0 mph6.4 kmh 30.09 in1019.0 mb 0.00 in0.0 mm 0.00 in0.0 mm 0.00 in0.0 mm
03:12 AM 59.2°F15.1°C 57.4°F14.1°C 94% 2.0 mph NW3.2 kmh NW 6.0 mph9.7 kmh 30.09 in1019.0 mb 0.00 in0.0 mm 0.00 in0.0 mm 0.00 in0.0 mm
03:22 AM 59.4°F15.2°C 57.6°F14.2°C 94% 2.0 mph W3.2 kmh W 4.9 mph7.9 kmh 30.09 in1019.0 mb 0.00 in0.0 mm 0.00 in0.0 mm 0.00 in0.0 mm
03:32 AM 59.4°F15.2°C 57.6°F14.2°C 94% 2.0 mph NW3.2 kmh NW 6.0 mph9.7 kmh 30.10 in1019.3 mb 0.00 in0.0 mm 0.00 in0.0 mm 0.00 in0.0 mm
03:42 AM 59.2°F15.1°C 57.4°F14.1°C 94% 0.9 mph ENE1.4 kmh ENE 2.9 mph4.7 kmh 30.10 in1019.3 mb 0.00 in0.0 mm 0.00 in0.0 mm 0.00 in0.0 mm
03:52 AM 59.2°F15.1°C 57.4°F14.1°C 94% 0.9 mph ENE1.4 kmh ENE 2.0 mph3.2 kmh 30.11 in1019.6 mb 0.00 in0.0 mm 0.00 in0.0 mm 0.00 in0.0 mm
04:02 AM 59.2°F15.1°C 57.4°F14.1°C 94% 2.0 mph NW3.2 kmh NW 4.0 mph6.4 kmh 30.10 in1019.3 mb 0.00 in0.0 mm 0.00 in0.0 mm 0.00 in0.0 mm
04:12 AM 59.5°F15.3°C 58.1°F14.5°C 95% 0.9 mph NW1.4 kmh NW 4.0 mph6.4 kmh 30.10 in1019.3 mb 0.00 in0.0 mm 0.00 in0.0 mm 0.00 in0.0 mm
04:22 AM 59.5°F15.3°C 57.7°F14.3°C 94% 0.9 mph NE1.4 kmh NE 2.9 mph4.7 kmh 30.10 in1019.3 mb 0.00 in0.0 mm 0.00 in0.0 mm 0.00 in0.0 mm
04:32 AM 59.5°F15.3°C 57.7°F14.3°C 94% 0.9 mph 1.4 kmh 2.9 mph4.7 kmh 30.10 in1019.3 mb 0.00 in0.0 mm 0.00 in0.0 mm 0.00 in0.0 mm
04:42 AM 59.7°F15.4°C 57.9°F14.4°C 94% 0.9 mph 1.4 kmh 2.0 mph3.2 kmh 30.10 in1019.3 mb 0.00 in0.0 mm 0.00 in0.0 mm 0.00 in0.0 mm
04:52 AM 59.7°F15.4°C 57.9°F14.4°C 94% 0.9 mph ENE1.4 kmh ENE 4.0 mph6.4 kmh 30.11 in1019.6 mb 0.00 in0.0 mm 0.00 in0.0 mm 0.00 in0.0 mm
05:02 AM 59.7°F15.4°C 57.9°F14.4°C 94% 0.9 mph ENE1.4 kmh ENE 2.0 mph3.2 kmh 30.11 in1019.6 mb 0.00 in0.0 mm 0.00 in0.0 mm 0.00 in0.0 mm
05:12 AM 59.7°F15.4°C 58.3°F14.6°C 95% 2.0 mph E3.2 kmh E 4.0 mph6.4 kmh 30.11 in1019.6 mb 0.00 in0.0 mm 0.00 in0.0 mm 0.00 in0.0 mm
05:22 AM 59.7°F15.4°C 58.3°F14.6°C 95% 2.0 mph E3.2 kmh E 2.9 mph4.7 kmh 30.11 in1019.6 mb 0.00 in0.0 mm 0.00 in0.0 mm 0.00 in0.0 mm
05:32 AM 59.7°F15.4°C 58.3°F14.6°C 95% 2.0 mph SE3.2 kmh SE 4.0 mph6.4 kmh 30.11 in1019.6 mb 0.00 in0.0 mm 0.00 in0.0 mm 0.00 in0.0 mm
05:42 AM 59.5°F15.3°C 58.1°F14.5°C 95% 2.0 mph SE3.2 kmh SE 2.9 mph4.7 kmh 30.11 in1019.6 mb 0.00 in0.0 mm 0.00 in0.0 mm 0.00 in0.0 mm
05:53 AM 59.5°F15.3°C 58.1°F14.5°C 95% 0.9 mph ESE1.4 kmh ESE 4.0 mph6.4 kmh 30.11 in1019.6 mb 0.00 in0.0 mm 0.00 in0.0 mm 0.00 in0.0 mm
06:03 AM 59.4°F15.2°C 57.9°F14.4°C 95% 2.0 mph ESE3.2 kmh ESE 4.0 mph6.4 kmh 30.11 in1019.6 mb 0.00 in0.0 mm 0.00 in0.0 mm 0.00 in0.0 mm
06:13 AM 59.4°F15.2°C 57.9°F14.4°C 95% 0.9 mph SSW1.4 kmh SSW 4.0 mph6.4 kmh 30.11 in1019.6 mb 0.00 in0.0 mm 0.00 in0.0 mm 0.00 in0.0 mm
06:23 AM 59.4°F15.2°C 57.9°F14.4°C 95% Calm Calm 2.0 mph3.2 kmh 30.11 in1019.6 mb 0.00 in0.0 mm 0.00 in0.0 mm 0.00 in0.0 mm
06:33 AM 59.5°F15.3°C 58.1°F14.5°C 95% 2.0 mph SSE3.2 kmh SSE 4.0 mph6.4 kmh 30.11 in1019.6 mb 0.00 in0.0 mm 0.00 in0.0 mm 0.00 in0.0 mm
06:43 AM 59.5°F15.3°C 58.1°F14.5°C 95% 2.0 mph SSE3.2 kmh SSE 4.9 mph7.9 kmh 30.11 in1019.6 mb 0.00 in0.0 mm 0.00 in0.0 mm 0.00 in0.0 mm
06:53 AM 59.5°F15.3°C 58.1°F14.5°C 95% 2.9 mph SE4.7 kmh SE 6.0 mph9.7 kmh 30.12 in1020.0 mb 0.00 in0.0 mm 0.00 in0.0 mm 0.00 in0.0 mm
07:03 AM 59.4°F15.2°C 57.9°F14.4°C 95% 2.9 mph SSE4.7 kmh SSE 6.9 mph11.1 kmh 30.12 in1020.0 mb 0.00 in0.0 mm 0.00 in0.0 mm 0.00 in0.0 mm
07:13 AM 59.4°F15.2°C 57.9°F14.4°C 95% 0.9 mph S1.4 kmh S 4.0 mph6.4 kmh 30.11 in1019.6 mb 0.00 in0.0 mm 0.00 in0.0 mm 0.00 in0.0 mm
07:23 AM 59.2°F15.1°C 57.7°F14.3°C 95% 0.9 mph SSW1.4 kmh SSW 4.0 mph6.4 kmh 30.11 in1019.6 mb 0.00 in0.0 mm 0.00 in0.0 mm 0.00 in0.0 mm
07:34 AM 59.4°F15.2°C 57.9°F14.4°C 95% Calm Calm 4.0 mph6.4 kmh 30.11 in1019.6 mb 0.00 in0.0 mm 0.00 in0.0 mm 0.00 in0.0 mm
07:44 AM 59.5°F15.3°C 58.1°F14.5°C 95% 2.0 mph SE3.2 kmh SE 4.9 mph7.9 kmh 30.12 in1020.0 mb 0.00 in0.0 mm 0.00 in0.0 mm 0.00 in0.0 mm
07:54 AM 59.7°F15.4°C 58.3°F14.6°C 95% Calm Calm 2.9 mph4.7 kmh 30.12 in1020.0 mb 0.00 in0.0 mm 0.00 in0.0 mm 0.00 in0.0 mm
08:04 AM 59.7°F15.4°C 58.3°F14.6°C 95% 2.0 mph SSE3.2 kmh SSE 2.9 mph4.7 kmh 30.12 in1020.0 mb 0.00 in0.0 mm 0.00 in0.0 mm 0.00 in0.0 mm
08:14 AM 60.1°F15.6°C 58.6°F14.8°C 95% 0.9 mph ESE1.4 kmh ESE 4.0 mph6.4 kmh 30.12 in1020.0 mb 0.00 in0.0 mm 0.00 in0.0 mm 0.00 in0.0 mm
08:24 AM 60.3°F15.7°C 58.8°F14.9°C 95% 2.0 mph N3.2 kmh N 4.0 mph6.4 kmh 30.12 in1020.0 mb 0.00 in0.0 mm 0.00 in0.0 mm 0.00 in0.0 mm
08:34 AM 60.4°F15.8°C 59.0°F15.0°C 95% 0.9 mph NW1.4 kmh NW 2.9 mph4.7 kmh 30.13 in1020.3 mb 0.00 in0.0 mm 0.00 in0.0 mm 0.00 in0.0 mm
08:44 AM 60.6°F15.9°C 59.2°F15.1°C 95% 0.9 mph NW1.4 kmh NW 4.0 mph6.4 kmh 30.13 in1020.3 mb 0.00 in0.0 mm 0.00 in0.0 mm 0.00 in0.0 mm
08:54 AM 61.5°F16.4°C 60.4°F15.8°C 96% 2.0 mph NW3.2 kmh NW 4.9 mph7.9 kmh 30.13 in1020.3 mb 0.00 in0.0 mm 0.00 in0.0 mm 0.00 in0.0 mm
09:04 AM 62.8°F17.1°C 61.7°F16.5°C 96% 0.9 mph SSW1.4 kmh SSW 4.9 mph7.9 kmh 30.13 in1020.3 mb 0.00 in0.0 mm 0.00 in0.0 mm 0.00 in0.0 mm
09:14 AM 63.9°F17.7°C 62.4°F16.9°C 95% 2.0 mph SE3.2 kmh SE 4.9 mph7.9 kmh 30.14 in1020.7 mb 0.00 in0.0 mm 0.00 in0.0 mm 0.00 in0.0 mm
09:24 AM 64.6°F18.1°C 63.1°F17.3°C 95% 2.0 mph S3.2 kmh S 4.9 mph7.9 kmh 30.13 in1020.3 mb 0.00 in0.0 mm 0.00 in0.0 mm 0.00 in0.0 mm
09:34 AM 65.1°F18.4°C 63.3°F17.4°C 94% 4.0 mph WSW6.4 kmh WSW 6.9 mph11.1 kmh 30.14 in1020.7 mb 0.00 in0.0 mm 0.00 in0.0 mm 0.00 in0.0 mm
09:44 AM 66.7°F19.3°C 64.6°F18.1°C 93% 2.9 mph W4.7 kmh W 8.1 mph13.0 kmh 30.13 in1020.3 mb 0.00 in0.0 mm 0.00 in0.0 mm 0.00 in0.0 mm
09:54 AM 69.1°F20.6°C 65.7°F18.7°C 89% 2.9 mph W4.7 kmh W 6.9 mph11.1 kmh 30.14 in1020.7 mb 0.00 in0.0 mm 0.00 in0.0 mm 0.00 in0.0 mm
10:04 AM 71.4°F21.9°C 65.3°F18.5°C 81% 2.9 mph SW4.7 kmh SW 6.9 mph11.1 kmh 30.14 in1020.7 mb 0.00 in0.0 mm 0.00 in0.0 mm 0.00 in0.0 mm
10:14 AM 73.2°F22.9°C 64.0°F17.8°C 73% 0.9 mph W1.4 kmh W 4.0 mph6.4 kmh 30.13 in1020.3 mb 0.00 in0.0 mm 0.00 in0.0 mm 0.00 in0.0 mm
10:24 AM 75.6°F24.2°C 64.2°F17.9°C 68% 2.0 mph NW3.2 kmh NW 8.1 mph13.0 kmh 30.13 in1020.3 mb 0.00 in0.0 mm 0.00 in0.0 mm 0.00 in0.0 mm
10:34 AM 76.6°F24.8°C 64.9°F18.3°C 67% 4.0 mph N6.4 kmh N 8.1 mph13.0 kmh 30.13 in1020.3 mb 0.00 in0.0 mm 0.00 in0.0 mm 0.00 in0.0 mm
10:44 AM 77.7°F25.4°C 64.0°F17.8°C 63% 4.0 mph 6.4 kmh 10.1 mph16.3 kmh 30.13 in1020.3 mb 0.00 in0.0 mm 0.00 in0.0 mm 0.00 in0.0 mm
10:54 AM 78.1°F25.6°C 63.5°F17.5°C 61% 4.0 mph NNW6.4 kmh NNW 8.1 mph13.0 kmh 30.13 in1020.3 mb 0.00 in0.0 mm 0.00 in0.0 mm 0.00 in0.0 mm
11:04 AM 79.2°F26.2°C 63.7°F17.6°C 59% 4.0 mph WNW6.4 kmh WNW 8.9 mph14.3 kmh 30.13 in1020.3 mb 0.00 in0.0 mm 0.00 in0.0 mm 0.00 in0.0 mm
11:14 AM 79.9°F26.6°C 63.3°F17.4°C 57% 2.9 mph N4.7 kmh N 8.1 mph13.0 kmh 30.12 in1020.0 mb 0.00 in0.0 mm 0.00 in0.0 mm 0.00 in0.0 mm
11:24 AM 80.6°F27.0°C 62.4°F16.9°C 54% 2.9 mph N4.7 kmh N 8.1 mph13.0 kmh 30.12 in1020.0 mb 0.00 in0.0 mm 0.00 in0.0 mm 0.00 in0.0 mm
11:34 AM 81.1°F27.3°C 62.4°F16.9°C 53% 2.9 mph ENE4.7 kmh ENE 8.9 mph14.3 kmh 30.12 in1020.0 mb 0.00 in0.0 mm 0.00 in0.0 mm 0.00 in0.0 mm
11:44 AM 81.9°F27.7°C 64.0°F17.8°C 55% 2.9 mph NW4.7 kmh NW 8.1 mph13.0 kmh 30.12 in1020.0 mb 0.00 in0.0 mm 0.00 in0.0 mm 0.00 in0.0 mm
11:54 AM 82.0°F27.8°C 64.8°F18.2°C 56% 4.9 mph WNW7.9 kmh WNW 10.1 mph16.3 kmh 30.12 in1020.0 mb 0.00 in0.0 mm 0.00 in0.0 mm 0.00 in0.0 mm
12:04 PM 82.2°F27.9°C 64.9°F18.3°C 56% 6.0 mph WSW9.7 kmh WSW 10.1 mph16.3 kmh 30.11 in1019.6 mb 0.00 in0.0 mm 0.00 in0.0 mm 0.00 in0.0 mm
12:14 PM 82.2°F27.9°C 65.5°F18.6°C 57% 6.0 mph N9.7 kmh N 11.0 mph17.7 kmh 30.11 in1019.6 mb 0.00 in0.0 mm 0.00 in0.0 mm 0.00 in0.0 mm
12:24 PM 82.6°F28.1°C 65.8°F18.8°C 57% 6.0 mph NW9.7 kmh NW 11.0 mph17.7 kmh 30.11 in1019.6 mb 0.00 in0.0 mm 0.00 in0.0 mm 0.00 in0.0 mm
12:34 PM 82.4°F28.0°C 66.2°F19.0°C 58% 6.0 mph N9.7 kmh N 10.1 mph16.3 kmh 30.11 in1019.6 mb 0.00 in0.0 mm 0.00 in0.0 mm 0.00 in0.0 mm
12:45 PM 82.8°F28.2°C 64.9°F18.3°C 55% 4.9 mph N7.9 kmh N 10.1 mph16.3 kmh 30.11 in1019.6 mb 0.00 in0.0 mm 0.00 in0.0 mm 0.00 in0.0 mm
12:55 PM 82.0°F27.8°C 64.8°F18.2°C 56% 6.0 mph N9.7 kmh N 11.0 mph17.7 kmh 30.10 in1019.3 mb 0.00 in0.0 mm 0.00 in0.0 mm 0.00 in0.0 mm
01:05 PM 82.6°F28.1°C 64.8°F18.2°C 55% 6.0 mph NNW9.7 kmh NNW 11.0 mph17.7 kmh 30.10 in1019.3 mb 0.00 in0.0 mm 0.00 in0.0 mm 0.00 in0.0 mm
01:15 PM 82.9°F28.3°C 65.7°F18.7°C 56% 6.0 mph N9.7 kmh N 11.0 mph17.7 kmh 30.10 in1019.3 mb 0.00 in0.0 mm 0.00 in0.0 mm 0.00 in0.0 mm
01:25 PM 83.8°F28.8°C 64.9°F18.3°C 53% 4.9 mph NNW7.9 kmh NNW 10.1 mph16.3 kmh 30.09 in1019.0 mb 0.00 in0.0 mm 0.00 in0.0 mm 0.00 in0.0 mm
01:35 PM 84.2°F29.0°C 65.3°F18.5°C 53% 4.9 mph 7.9 kmh 10.1 mph16.3 kmh 30.09 in1019.0 mb 0.00 in0.0 mm 0.00 in0.0 mm 0.00 in0.0 mm
01:45 PM 85.1°F29.5°C 64.4°F18.0°C 50% 4.9 mph NNW7.9 kmh NNW 8.9 mph14.3 kmh 30.09 in1019.0 mb 0.00 in0.0 mm 0.00 in0.0 mm 0.00 in0.0 mm
01:55 PM 84.4°F29.1°C 64.2°F17.9°C 51% 4.9 mph NNW7.9 kmh NNW 10.1 mph16.3 kmh 30.09 in1019.0 mb 0.00 in0.0 mm 0.00 in0.0 mm 0.00 in0.0 mm
02:05 PM 85.3°F29.6°C 65.1°F18.4°C 51% 6.0 mph N9.7 kmh N 12.1 mph19.5 kmh 30.08 in1018.6 mb 0.00 in0.0 mm 0.00 in0.0 mm 0.00 in0.0 mm
02:15 PM 85.6°F29.8°C 64.9°F18.3°C 50% 8.1 mph NW13.0 kmh NW 13.0 mph20.9 kmh 30.09 in1019.0 mb 0.00 in0.0 mm 0.00 in0.0 mm 0.00 in0.0 mm
02:25 PM 85.3°F29.6°C 64.6°F18.1°C 50% 10.1 mph W16.3 kmh W 15.0 mph24.1 kmh 30.09 in1019.0 mb 0.00 in0.0 mm 0.00 in0.0 mm 0.00 in0.0 mm
02:35 PM 82.6°F28.1°C 64.2°F17.9°C 54% 10.1 mph NW16.3 kmh NW 17.0 mph27.4 kmh 30.09 in1019.0 mb 0.00 in0.0 mm 0.00 in0.0 mm 0.00 in0.0 mm
02:45 PM 80.2°F26.8°C 64.0°F17.8°C 58% 8.9 mph WNW14.3 kmh WNW 16.1 mph25.9 kmh 30.09 in1019.0 mb 0.00 in0.0 mm 0.00 in0.0 mm 0.00 in0.0 mm
02:55 PM 77.7°F25.4°C 64.0°F17.8°C 63% 10.1 mph NW16.3 kmh NW 15.0 mph24.1 kmh 30.10 in1019.3 mb 0.00 in0.0 mm 0.00 in0.0 mm 0.00 in0.0 mm
03:05 PM 76.5°F24.7°C 63.9°F17.7°C 65% 6.9 mph WNW11.1 kmh WNW 15.0 mph24.1 kmh 30.10 in1019.3 mb 0.00 in0.0 mm 0.00 in0.0 mm 0.00 in0.0 mm
03:15 PM 75.9°F24.4°C 64.2°F17.9°C 67% 6.9 mph WNW11.1 kmh WNW 15.0 mph24.1 kmh 30.10 in1019.3 mb 0.00 in0.0 mm 0.00 in0.0 mm 0.00 in0.0 mm
03:25 PM 75.7°F24.3°C 64.4°F18.0°C 68% 6.9 mph NW11.1 kmh NW 13.0 mph20.9 kmh 30.10 in1019.3 mb 0.00 in0.0 mm 0.00 in0.0 mm 0.00 in0.0 mm
03:35 PM 74.8°F23.8°C 64.0°F17.8°C 69% 6.9 mph WNW11.1 kmh WNW 13.0 mph20.9 kmh 30.11 in1019.6 mb 0.00 in0.0 mm 0.00 in0.0 mm 0.00 in0.0 mm
03:45 PM 75.0°F23.9°C 64.2°F17.9°C 69% 4.9 mph NNW7.9 kmh NNW 8.9 mph14.3 kmh 30.10 in1019.3 mb 0.00 in0.0 mm 0.00 in0.0 mm 0.00 in0.0 mm
03:55 PM 75.6°F24.2°C 64.2°F17.9°C 68% 4.9 mph NW7.9 kmh NW 12.1 mph19.5 kmh 30.11 in1019.6 mb 0.00 in0.0 mm 0.00 in0.0 mm 0.00 in0.0 mm
04:05 PM 74.8°F23.8°C 63.5°F17.5°C 68% 6.0 mph WSW9.7 kmh WSW 12.1 mph19.5 kmh 30.11 in1019.6 mb 0.00 in0.0 mm 0.00 in0.0 mm 0.00 in0.0 mm
04:15 PM 75.0°F23.9°C 63.7°F17.6°C 68% 4.0 mph NNW6.4 kmh NNW 8.9 mph14.3 kmh 30.11 in1019.6 mb 0.00 in0.0 mm 0.00 in0.0 mm 0.00 in0.0 mm
04:25 PM 75.0°F23.9°C 64.2°F17.9°C 69% 4.9 mph NW7.9 kmh NW 10.1 mph16.3 kmh 30.11 in1019.6 mb 0.00 in0.0 mm 0.00 in0.0 mm 0.00 in0.0 mm
04:35 PM 74.5°F23.6°C 63.7°F17.6°C 69% 4.0 mph N6.4 kmh N 8.1 mph13.0 kmh 30.11 in1019.6 mb 0.00 in0.0 mm 0.00 in0.0 mm 0.00 in0.0 mm
04:45 PM 73.4°F23.0°C 63.5°F17.5°C 71% 4.0 mph N6.4 kmh N 8.1 mph13.0 kmh 30.10 in1019.3 mb 0.00 in0.0 mm 0.00 in0.0 mm 0.00 in0.0 mm
04:55 PM 72.9°F22.7°C 63.3°F17.4°C 72% 4.0 mph NNE6.4 kmh NNE 6.9 mph11.1 kmh 30.10 in1019.3 mb 0.00 in0.0 mm 0.00 in0.0 mm 0.00 in0.0 mm
05:05 PM 73.9°F23.3°C 64.4°F18.0°C 72% 2.0 mph N3.2 kmh N 6.0 mph9.7 kmh 30.11 in1019.6 mb 0.00 in0.0 mm 0.00 in0.0 mm 0.00 in0.0 mm
05:15 PM 73.6°F23.1°C 64.0°F17.8°C 72% 4.0 mph NNW6.4 kmh NNW 6.9 mph11.1 kmh 30.11 in1019.6 mb 0.00 in0.0 mm 0.00 in0.0 mm 0.00 in0.0 mm
05:25 PM 73.2°F22.9°C 63.3°F17.4°C 71% 4.9 mph NW7.9 kmh NW 8.9 mph14.3 kmh 30.11 in1019.6 mb 0.00 in0.0 mm 0.00 in0.0 mm 0.00 in0.0 mm
05:35 PM 72.9°F22.7°C 63.3°F17.4°C 72% 4.0 mph NNW6.4 kmh NNW 8.1 mph13.0 kmh 30.11 in1019.6 mb 0.00 in0.0 mm 0.00 in0.0 mm 0.00 in0.0 mm
05:45 PM 72.1°F22.3°C 63.0°F17.2°C 73% 4.0 mph NW6.4 kmh NW 8.1 mph13.0 kmh 30.11 in1019.6 mb 0.00 in0.0 mm 0.00 in0.0 mm 0.00 in0.0 mm
05:55 PM 71.8°F22.1°C 62.6°F17.0°C 73% 2.9 mph NW4.7 kmh NW 6.0 mph9.7 kmh 30.11 in1019.6 mb 0.00 in0.0 mm 0.00 in0.0 mm 0.00 in0.0 mm
06:05 PM 71.2°F21.8°C 62.6°F17.0°C 74% 2.9 mph NNW4.7 kmh NNW 6.0 mph9.7 kmh 30.12 in1020.0 mb 0.00 in0.0 mm 0.00 in0.0 mm 0.00 in0.0 mm
06:15 PM 70.7°F21.5°C 62.4°F16.9°C 75% 2.9 mph NNE4.7 kmh NNE 4.9 mph7.9 kmh 30.12 in1020.0 mb 0.00 in0.0 mm 0.00 in0.0 mm 0.00 in0.0 mm
06:26 PM 70.2°F21.2°C 62.6°F17.0°C 77% 2.0 mph NW3.2 kmh NW 4.0 mph6.4 kmh 30.12 in1020.0 mb 0.00 in0.0 mm 0.00 in0.0 mm 0.00 in0.0 mm
06:36 PM 69.4°F20.8°C 62.2°F16.8°C 78% 2.9 mph NW4.7 kmh NW 6.0 mph9.7 kmh 30.12 in1020.0 mb 0.00 in0.0 mm 0.00 in0.0 mm 0.00 in0.0 mm
06:46 PM 68.7°F20.4°C 62.2°F16.8°C 80% 4.0 mph NW6.4 kmh NW 6.9 mph11.1 kmh 30.13 in1020.3 mb 0.00 in0.0 mm 0.00 in0.0 mm 0.00 in0.0 mm
06:56 PM 67.6°F19.8°C 61.9°F16.6°C 82% 4.9 mph WNW7.9 kmh WNW 8.9 mph14.3 kmh 30.13 in1020.3 mb 0.00 in0.0 mm 0.00 in0.0 mm 0.00 in0.0 mm
07:06 PM 66.6°F19.2°C 61.2°F16.2°C 83% 4.9 mph WNW7.9 kmh WNW 8.9 mph14.3 kmh 30.13 in1020.3 mb 0.00 in0.0 mm 0.00 in0.0 mm 0.00 in0.0 mm
07:16 PM 65.7°F18.7°C 61.0°F16.1°C 85% 4.0 mph W6.4 kmh W 8.9 mph14.3 kmh 30.13 in1020.3 mb 0.00 in0.0 mm 0.00 in0.0 mm 0.00 in0.0 mm
07:26 PM 65.1°F18.4°C 61.2°F16.2°C 87% 2.0 mph NW3.2 kmh NW 4.9 mph7.9 kmh 30.14 in1020.7 mb 0.00 in0.0 mm 0.00 in0.0 mm 0.00 in0.0 mm
07:36 PM 64.6°F18.1°C 60.6°F15.9°C 87% 4.0 mph NW6.4 kmh NW 8.1 mph13.0 kmh 30.15 in1021.0 mb 0.00 in0.0 mm 0.00 in0.0 mm 0.00 in0.0 mm
07:46 PM 64.2°F17.9°C 60.6°F15.9°C 88% 2.9 mph NW4.7 kmh NW 6.0 mph9.7 kmh 30.16 in1021.3 mb 0.00 in0.0 mm 0.00 in0.0 mm 0.00 in0.0 mm
07:56 PM 64.0°F17.8°C 60.8°F16.0°C 89% 4.0 mph NW6.4 kmh NW 10.1 mph16.3 kmh 30.17 in1021.7 mb 0.00 in0.0 mm 0.00 in0.0 mm 0.00 in0.0 mm
08:06 PM 64.0°F17.8°C 61.0°F16.1°C 90% 2.9 mph N4.7 kmh N 8.9 mph14.3 kmh 30.17 in1021.7 mb 0.00 in0.0 mm 0.00 in0.0 mm 0.00 in0.0 mm
08:16 PM 63.9°F17.7°C 60.8°F16.0°C 90% 2.0 mph NW3.2 kmh NW 8.1 mph13.0 kmh 30.17 in1021.7 mb 0.00 in0.0 mm 0.00 in0.0 mm 0.00 in0.0 mm
08:26 PM 63.9°F17.7°C 60.8°F16.0°C 90% 0.9 mph N1.4 kmh N 4.0 mph6.4 kmh 30.17 in1021.7 mb 0.00 in0.0 mm 0.00 in0.0 mm 0.00 in0.0 mm
08:36 PM 63.9°F17.7°C 61.2°F16.2°C 91% 4.0 mph NW6.4 kmh NW 6.0 mph9.7 kmh 30.18 in1022.0 mb 0.00 in0.0 mm 0.00 in0.0 mm 0.00 in0.0 mm
08:46 PM 63.7°F17.6°C 61.0°F16.1°C 91% 2.0 mph WNW3.2 kmh WNW 4.0 mph6.4 kmh 30.18 in1022.0 mb 0.00 in0.0 mm 0.00 in0.0 mm 0.00 in0.0 mm
08:56 PM 63.9°F17.7°C 61.2°F16.2°C 91% 2.0 mph W3.2 kmh W 4.0 mph6.4 kmh 30.18 in1022.0 mb 0.00 in0.0 mm 0.00 in0.0 mm 0.00 in0.0 mm
09:06 PM 63.9°F17.7°C 61.2°F16.2°C 91% 0.9 mph W1.4 kmh W 2.9 mph4.7 kmh 30.18 in1022.0 mb 0.00 in0.0 mm 0.00 in0.0 mm 0.00 in0.0 mm
09:16 PM 63.9°F17.7°C 61.2°F16.2°C 91% 0.9 mph W1.4 kmh W 2.9 mph4.7 kmh 30.18 in1022.0 mb 0.00 in0.0 mm 0.00 in0.0 mm 0.00 in0.0 mm
09:26 PM 63.9°F17.7°C 61.5°F16.4°C 92% Calm Calm 2.9 mph4.7 kmh 30.18 in1022.0 mb 0.00 in0.0 mm 0.00 in0.0 mm 0.00 in0.0 mm
09:36 PM 63.7°F17.6°C 61.3°F16.3°C 92% 0.9 mph W1.4 kmh W 4.0 mph6.4 kmh 30.17 in1021.7 mb 0.00 in0.0 mm 0.00 in0.0 mm 0.00 in0.0 mm
09:46 PM 63.7°F17.6°C 61.3°F16.3°C 92% 2.0 mph SW3.2 kmh SW 4.0 mph6.4 kmh 30.17 in1021.7 mb 0.00 in0.0 mm 0.00 in0.0 mm 0.00 in0.0 mm
09:56 PM 63.7°F17.6°C 61.3°F16.3°C 92% 2.0 mph WSW3.2 kmh WSW 4.0 mph6.4 kmh 30.17 in1021.7 mb 0.00 in0.0 mm 0.00 in0.0 mm 0.00 in0.0 mm
10:06 PM 63.5°F17.5°C 61.2°F16.2°C 92% Calm Calm 2.0 mph3.2 kmh 30.16 in1021.3 mb 0.00 in0.0 mm 0.00 in0.0 mm 0.00 in0.0 mm
10:16 PM 63.5°F17.5°C 61.2°F16.2°C 92% 0.9 mph WSW1.4 kmh WSW 2.0 mph3.2 kmh 30.17 in1021.7 mb 0.00 in0.0 mm 0.00 in0.0 mm 0.00 in0.0 mm
10:26 PM 63.5°F17.5°C 61.2°F16.2°C 92% 2.0 mph SSW3.2 kmh SSW 4.0 mph6.4 kmh 30.16 in1021.3 mb 0.00 in0.0 mm 0.00 in0.0 mm 0.00 in0.0 mm
10:37 PM 63.3°F17.4°C 61.0°F16.1°C 92% 2.0 mph SW3.2 kmh SW 2.9 mph4.7 kmh 30.17 in1021.7 mb 0.00 in0.0 mm 0.00 in0.0 mm 0.00 in0.0 mm
10:47 PM 63.3°F17.4°C 61.0°F16.1°C 92% 0.9 mph SW1.4 kmh SW 2.0 mph3.2 kmh 30.17 in1021.7 mb 0.00 in0.0 mm 0.00 in0.0 mm 0.00 in0.0 mm
10:57 PM 63.3°F17.4°C 61.0°F16.1°C 92% 0.9 mph W1.4 kmh W 2.9 mph4.7 kmh 30.17 in1021.7 mb 0.00 in0.0 mm 0.00 in0.0 mm 0.00 in0.0 mm
11:07 PM 63.3°F17.4°C 61.0°F16.1°C 92% 2.9 mph NW4.7 kmh NW 4.9 mph7.9 kmh 30.17 in1021.7 mb 0.00 in0.0 mm 0.00 in0.0 mm 0.00 in0.0 mm
11:17 PM 63.3°F17.4°C 61.0°F16.1°C 92% 2.0 mph WNW3.2 kmh WNW 4.0 mph6.4 kmh 30.17 in1021.7 mb 0.00 in0.0 mm 0.00 in0.0 mm 0.00 in0.0 mm
11:27 PM 63.3°F17.4°C 61.0°F16.1°C 92% 0.9 mph WNW1.4 kmh WNW 2.9 mph4.7 kmh 30.17 in1021.7 mb 0.00 in0.0 mm 0.00 in0.0 mm 0.00 in0.0 mm
11:37 PM 63.1°F17.3°C 61.2°F16.2°C 93% Calm Calm 0.9 mph1.4 kmh 30.17 in1021.7 mb 0.00 in0.0 mm 0.00 in0.0 mm 0.00 in0.0 mm
11:48 PM 63.3°F17.4°C 61.3°F16.3°C 93% 0.9 mph WNW1.4 kmh WNW 2.9 mph4.7 kmh 30.17 in1021.7 mb 0.00 in0.0 mm 0.00 in0.0 mm 0.00 in0.0 mm
11:58 PM 63.3°F17.4°C 61.3°F16.3°C 93% 2.9 mph WSW4.7 kmh WSW 6.0 mph9.7 kmh 30.17 in1021.7 mb 0.00 in0.0 mm 0.00 in0.0 mm 0.00 in0.0 mm